sensor_id;sensor_type;location;lat;lon;timestamp;P1;durP1;ratioP1;P2;durP2;ratioP2
8139;SDS011;4111;50.972;7.072;2022-08-14T00:01:54;4.30;;;4.00;;
8139;SDS011;4111;50.972;7.072;2022-08-14T00:04:22;3.80;;;3.55;;
8139;SDS011;4111;50.972;7.072;2022-08-14T00:07:02;4.40;;;3.90;;
8139;SDS011;4111;50.972;7.072;2022-08-14T00:09:31;4.40;;;4.03;;
8139;SDS011;4111;50.972;7.072;2022-08-14T00:11:58;4.22;;;3.92;;
8139;SDS011;4111;50.972;7.072;2022-08-14T00:14:25;6.15;;;4.60;;
8139;SDS011;4111;50.972;7.072;2022-08-14T00:16:53;4.70;;;4.03;;
8139;SDS011;4111;50.972;7.072;2022-08-14T00:19:21;4.43;;;4.13;;
8139;SDS011;4111;50.972;7.072;2022-08-14T00:21:49;4.80;;;4.40;;
8139;SDS011;4111;50.972;7.072;2022-08-14T00:24:18;5.93;;;4.47;;
8139;SDS011;4111;50.972;7.072;2022-08-14T00:26:55;4.55;;;4.15;;
8139;SDS011;4111;50.972;7.072;2022-08-14T00:29:28;4.72;;;4.32;;
8139;SDS011;4111;50.972;7.072;2022-08-14T00:31:58;4.30;;;4.00;;
8139;SDS011;4111;50.972;7.072;2022-08-14T00:34:24;4.43;;;4.13;;
8139;SDS011;4111;50.972;7.072;2022-08-14T00:37:11;4.47;;;4.15;;
8139;SDS011;4111;50.972;7.072;2022-08-14T00:39:38;4.70;;;4.20;;
8139;SDS011;4111;50.972;7.072;2022-08-14T00:42:07;4.80;;;4.10;;
8139;SDS011;4111;50.972;7.072;2022-08-14T00:44:54;5.75;;;4.15;;
8139;SDS011;4111;50.972;7.072;2022-08-14T00:47:21;5.32;;;4.40;;
8139;SDS011;4111;50.972;7.072;2022-08-14T00:49:53;5.43;;;4.30;;
8139;SDS011;4111;50.972;7.072;2022-08-14T00:52:23;5.03;;;4.43;;
8139;SDS011;4111;50.972;7.072;2022-08-14T00:54:51;4.72;;;4.20;;
8139;SDS011;4111;50.972;7.072;2022-08-14T00:57:24;4.63;;;4.22;;
8139;SDS011;4111;50.972;7.072;2022-08-14T00:59:53;5.78;;;4.88;;
8139;SDS011;4111;50.972;7.072;2022-08-14T01:02:23;8.35;;;5.00;;
8139;SDS011;4111;50.972;7.072;2022-08-14T01:04:57;4.68;;;4.35;;
8139;SDS011;4111;50.972;7.072;2022-08-14T01:07:26;4.85;;;4.45;;
8139;SDS011;4111;50.972;7.072;2022-08-14T01:10:04;4.53;;;4.22;;
8139;SDS011;4111;50.972;7.072;2022-08-14T01:12:31;5.28;;;4.80;;
8139;SDS011;4111;50.972;7.072;2022-08-14T01:15:05;5.10;;;4.55;;
8139;SDS011;4111;50.972;7.072;2022-08-14T01:17:39;7.47;;;5.10;;
8139;SDS011;4111;50.972;7.072;2022-08-14T01:20:25;5.13;;;4.63;;
8139;SDS011;4111;50.972;7.072;2022-08-14T01:23:11;5.75;;;5.15;;
8139;SDS011;4111;50.972;7.072;2022-08-14T01:25:45;4.60;;;4.20;;
8139;SDS011;4111;50.972;7.072;2022-08-14T01:28:17;4.97;;;4.20;;
8139;SDS011;4111;50.972;7.072;2022-08-14T01:31:12;5.18;;;4.78;;
8139;SDS011;4111;50.972;7.072;2022-08-14T01:33:41;5.03;;;4.63;;
8139;SDS011;4111;50.972;7.072;2022-08-14T01:36:32;5.40;;;4.70;;
8139;SDS011;4111;50.972;7.072;2022-08-14T01:39:06;6.35;;;4.90;;
8139;SDS011;4111;50.972;7.072;2022-08-14T01:41:38;5.60;;;5.10;;
8139;SDS011;4111;50.972;7.072;2022-08-14T01:44:08;5.60;;;4.70;;
8139;SDS011;4111;50.972;7.072;2022-08-14T01:46:58;7.18;;;5.10;;
8139;SDS011;4111;50.972;7.072;2022-08-14T01:49:30;5.13;;;4.78;;
8139;SDS011;4111;50.972;7.072;2022-08-14T01:52:00;5.28;;;4.53;;
8139;SDS011;4111;50.972;7.072;2022-08-14T01:54:34;5.50;;;4.90;;
8139;SDS011;4111;50.972;7.072;2022-08-14T01:57:04;7.22;;;5.30;;
8139;SDS011;4111;50.972;7.072;2022-08-14T01:59:37;9.48;;;4.88;;
8139;SDS011;4111;50.972;7.072;2022-08-14T02:02:09;5.38;;;4.97;;
8139;SDS011;4111;50.972;7.072;2022-08-14T02:04:45;5.63;;;5.07;;
8139;SDS011;4111;50.972;7.072;2022-08-14T02:07:22;5.38;;;4.97;;
8139;SDS011;4111;50.972;7.072;2022-08-14T02:10:09;5.55;;;5.10;;
8139;SDS011;4111;50.972;7.072;2022-08-14T02:12:41;5.40;;;4.72;;
8139;SDS011;4111;50.972;7.072;2022-08-14T02:15:09;6.25;;;5.25;;
8139;SDS011;4111;50.972;7.072;2022-08-14T02:17:36;5.15;;;4.40;;
8139;SDS011;4111;50.972;7.072;2022-08-14T02:20:04;5.47;;;5.07;;
8139;SDS011;4111;50.972;7.072;2022-08-14T02:22:33;5.82;;;5.07;;
8139;SDS011;4111;50.972;7.072;2022-08-14T02:25:13;7.82;;;5.13;;
8139;SDS011;4111;50.972;7.072;2022-08-14T02:27:42;6.95;;;5.40;;
8139;SDS011;4111;50.972;7.072;2022-08-14T02:30:29;5.25;;;4.75;;
8139;SDS011;4111;50.972;7.072;2022-08-14T02:32:57;6.03;;;5.00;;
8139;SDS011;4111;50.972;7.072;2022-08-14T02:35:24;6.05;;;5.45;;
8139;SDS011;4111;50.972;7.072;2022-08-14T02:37:58;5.45;;;5.05;;
8139;SDS011;4111;50.972;7.072;2022-08-14T02:40:25;5.78;;;5.28;;
8139;SDS011;4111;50.972;7.072;2022-08-14T02:42:59;5.50;;;4.93;;
8139;SDS011;4111;50.972;7.072;2022-08-14T02:45:29;8.82;;;5.13;;
8139;SDS011;4111;50.972;7.072;2022-08-14T02:48:10;5.50;;;5.10;;
8139;SDS011;4111;50.972;7.072;2022-08-14T02:50:58;5.78;;;5.25;;
8139;SDS011;4111;50.972;7.072;2022-08-14T02:53:26;5.35;;;4.85;;
8139;SDS011;4111;50.972;7.072;2022-08-14T02:55:57;7.95;;;5.10;;
8139;SDS011;4111;50.972;7.072;2022-08-14T02:58:29;5.45;;;4.90;;
8139;SDS011;4111;50.972;7.072;2022-08-14T03:00:58;5.93;;;5.35;;
8139;SDS011;4111;50.972;7.072;2022-08-14T03:03:26;6.53;;;4.93;;
8139;SDS011;4111;50.972;7.072;2022-08-14T03:05:56;6.28;;;5.55;;
8139;SDS011;4111;50.972;7.072;2022-08-14T03:08:23;5.90;;;5.40;;
8139;SDS011;4111;50.972;7.072;2022-08-14T03:10:58;5.43;;;4.97;;
8139;SDS011;4111;50.972;7.072;2022-08-14T03:13:26;6.50;;;5.45;;
8139;SDS011;4111;50.972;7.072;2022-08-14T03:15:54;6.90;;;5.05;;
8139;SDS011;4111;50.972;7.072;2022-08-14T03:18:24;5.90;;;5.50;;
8139;SDS011;4111;50.972;7.072;2022-08-14T03:21:02;5.88;;;5.35;;
8139;SDS011;4111;50.972;7.072;2022-08-14T03:23:31;5.90;;;5.50;;
8139;SDS011;4111;50.972;7.072;2022-08-14T03:26:03;6.07;;;5.03;;
8139;SDS011;4111;50.972;7.072;2022-08-14T03:28:32;7.03;;;5.63;;
8139;SDS011;4111;50.972;7.072;2022-08-14T03:31:01;6.50;;;5.80;;
8139;SDS011;4111;50.972;7.072;2022-08-14T03:33:33;5.88;;;5.38;;
8139;SDS011;4111;50.972;7.072;2022-08-14T03:36:06;8.68;;;5.68;;
8139;SDS011;4111;50.972;7.072;2022-08-14T03:38:57;6.03;;;5.43;;
8139;SDS011;4111;50.972;7.072;2022-08-14T03:41:41;7.22;;;5.93;;
8139;SDS011;4111;50.972;7.072;2022-08-14T03:44:20;5.95;;;5.38;;
8139;SDS011;4111;50.972;7.072;2022-08-14T03:47:07;6.28;;;5.70;;
8139;SDS011;4111;50.972;7.072;2022-08-14T03:49:37;7.28;;;5.95;;
8139;SDS011;4111;50.972;7.072;2022-08-14T03:52:07;8.75;;;5.88;;
8139;SDS011;4111;50.972;7.072;2022-08-14T03:54:56;6.38;;;5.88;;
8139;SDS011;4111;50.972;7.072;2022-08-14T03:57:23;5.93;;;5.53;;
8139;SDS011;4111;50.972;7.072;2022-08-14T03:59:50;6.35;;;5.85;;
8139;SDS011;4111;50.972;7.072;2022-08-14T04:02:16;6.82;;;6.32;;
8139;SDS011;4111;50.972;7.072;2022-08-14T04:05:03;6.07;;;5.57;;
8139;SDS011;4111;50.972;7.072;2022-08-14T04:07:37;6.85;;;6.22;;
8139;SDS011;4111;50.972;7.072;2022-08-14T04:10:14;6.13;;;5.72;;
8139;SDS011;4111;50.972;7.072;2022-08-14T04:12:42;6.13;;;5.72;;
8139;SDS011;4111;50.972;7.072;2022-08-14T04:15:17;6.25;;;5.85;;
8139;SDS011;4111;50.972;7.072;2022-08-14T04:17:48;7.07;;;6.47;;
8139;SDS011;4111;50.972;7.072;2022-08-14T04:20:15;6.10;;;5.70;;
8139;SDS011;4111;50.972;7.072;2022-08-14T04:22:51;6.90;;;6.40;;
8139;SDS011;4111;50.972;7.072;2022-08-14T04:25:20;6.82;;;6.13;;
8139;SDS011;4111;50.972;7.072;2022-08-14T04:27:47;6.97;;;6.38;;
8139;SDS011;4111;50.972;7.072;2022-08-14T04:30:29;7.25;;;6.50;;
8139;SDS011;4111;50.972;7.072;2022-08-14T04:32:58;6.97;;;6.47;;
8139;SDS011;4111;50.972;7.072;2022-08-14T04:35:43;7.10;;;6.45;;
8139;SDS011;4111;50.972;7.072;2022-08-14T04:38:21;7.20;;;6.60;;
8139;SDS011;4111;50.972;7.072;2022-08-14T04:41:12;6.85;;;6.15;;
8139;SDS011;4111;50.972;7.072;2022-08-14T04:43:57;6.68;;;6.18;;
8139;SDS011;4111;50.972;7.072;2022-08-14T04:46:24;8.38;;;6.53;;
8139;SDS011;4111;50.972;7.072;2022-08-14T04:49:11;7.03;;;6.53;;
8139;SDS011;4111;50.972;7.072;2022-08-14T04:51:40;7.10;;;6.50;;
8139;SDS011;4111;50.972;7.072;2022-08-14T04:54:21;7.13;;;6.38;;
8139;SDS011;4111;50.972;7.072;2022-08-14T04:56:49;7.28;;;6.57;;
8139;SDS011;4111;50.972;7.072;2022-08-14T04:59:19;7.35;;;6.70;;
8139;SDS011;4111;50.972;7.072;2022-08-14T05:01:47;9.02;;;6.90;;
8139;SDS011;4111;50.972;7.072;2022-08-14T05:04:21;6.97;;;6.38;;
8139;SDS011;4111;50.972;7.072;2022-08-14T05:06:51;7.07;;;6.30;;
8139;SDS011;4111;50.972;7.072;2022-08-14T05:09:21;7.50;;;6.93;;
8139;SDS011;4111;50.972;7.072;2022-08-14T05:11:49;7.75;;;7.15;;
8139;SDS011;4111;50.972;7.072;2022-08-14T05:14:17;7.65;;;6.95;;
8139;SDS011;4111;50.972;7.072;2022-08-14T05:17:04;7.50;;;6.80;;
8139;SDS011;4111;50.972;7.072;2022-08-14T05:19:32;8.10;;;7.20;;
8139;SDS011;4111;50.972;7.072;2022-08-14T05:22:01;7.68;;;7.03;;
8139;SDS011;4111;50.972;7.072;2022-08-14T05:24:43;7.32;;;6.63;;
8139;SDS011;4111;50.972;7.072;2022-08-14T05:27:14;7.72;;;7.05;;
8139;SDS011;4111;50.972;7.072;2022-08-14T05:29:42;8.00;;;7.28;;
8139;SDS011;4111;50.972;7.072;2022-08-14T05:32:10;7.60;;;6.93;;
8139;SDS011;4111;50.972;7.072;2022-08-14T05:34:40;7.90;;;7.15;;
8139;SDS011;4111;50.972;7.072;2022-08-14T05:37:11;10.30;;;7.20;;
8139;SDS011;4111;50.972;7.072;2022-08-14T05:39:41;7.80;;;7.13;;
8139;SDS011;4111;50.972;7.072;2022-08-14T05:42:08;9.52;;;7.25;;
8139;SDS011;4111;50.972;7.072;2022-08-14T05:44:52;7.85;;;7.25;;
8139;SDS011;4111;50.972;7.072;2022-08-14T05:47:21;7.65;;;6.80;;
8139;SDS011;4111;50.972;7.072;2022-08-14T05:49:48;8.40;;;7.63;;
8139;SDS011;4111;50.972;7.072;2022-08-14T05:52:17;7.30;;;6.57;;
8139;SDS011;4111;50.972;7.072;2022-08-14T05:54:59;7.90;;;7.22;;
8139;SDS011;4111;50.972;7.072;2022-08-14T05:57:25;6.82;;;6.38;;
8139;SDS011;4111;50.972;7.072;2022-08-14T05:59:53;7.28;;;6.32;;
8139;SDS011;4111;50.972;7.072;2022-08-14T06:02:25;6.90;;;6.40;;
8139;SDS011;4111;50.972;7.072;2022-08-14T06:04:54;7.63;;;6.93;;
8139;SDS011;4111;50.972;7.072;2022-08-14T06:07:23;7.07;;;6.38;;
8139;SDS011;4111;50.972;7.072;2022-08-14T06:09:51;9.52;;;6.47;;
8139;SDS011;4111;50.972;7.072;2022-08-14T06:12:17;6.70;;;6.20;;
8139;SDS011;4111;50.972;7.072;2022-08-14T06:15:05;7.43;;;6.80;;
8139;SDS011;4111;50.972;7.072;2022-08-14T06:17:50;6.93;;;6.35;;
8139;SDS011;4111;50.972;7.072;2022-08-14T06:20:24;6.85;;;6.20;;
8139;SDS011;4111;50.972;7.072;2022-08-14T06:22:51;6.45;;;6.00;;
8139;SDS011;4111;50.972;7.072;2022-08-14T06:25:17;6.45;;;5.95;;
8139;SDS011;4111;50.972;7.072;2022-08-14T06:27:47;6.57;;;5.97;;
8139;SDS011;4111;50.972;7.072;2022-08-14T06:30:16;6.78;;;6.13;;
8139;SDS011;4111;50.972;7.072;2022-08-14T06:32:45;6.75;;;6.03;;
8139;SDS011;4111;50.972;7.072;2022-08-14T06:35:17;6.60;;;5.88;;
8139;SDS011;4111;50.972;7.072;2022-08-14T06:37:46;6.43;;;5.82;;
8139;SDS011;4111;50.972;7.072;2022-08-14T06:40:25;6.35;;;5.85;;
8139;SDS011;4111;50.972;7.072;2022-08-14T06:43:02;6.68;;;5.82;;
8139;SDS011;4111;50.972;7.072;2022-08-14T06:45:32;10.05;;;6.32;;
8139;SDS011;4111;50.972;7.072;2022-08-14T06:48:04;6.45;;;5.85;;
8139;SDS011;4111;50.972;7.072;2022-08-14T06:50:49;6.50;;;5.82;;
8139;SDS011;4111;50.972;7.072;2022-08-14T06:53:17;6.60;;;6.00;;
8139;SDS011;4111;50.972;7.072;2022-08-14T06:55:45;9.40;;;6.50;;
8139;SDS011;4111;50.972;7.072;2022-08-14T06:58:26;6.53;;;5.93;;
8139;SDS011;4111;50.972;7.072;2022-08-14T07:00:56;6.35;;;5.75;;
8139;SDS011;4111;50.972;7.072;2022-08-14T07:03:45;6.60;;;6.05;;
8139;SDS011;4111;50.972;7.072;2022-08-14T07:06:37;6.53;;;5.97;;
8139;SDS011;4111;50.972;7.072;2022-08-14T07:09:12;6.50;;;5.93;;
8139;SDS011;4111;50.972;7.072;2022-08-14T07:11:47;6.05;;;5.60;;
8139;SDS011;4111;50.972;7.072;2022-08-14T07:14:14;6.72;;;5.90;;
8139;SDS011;4111;50.972;7.072;2022-08-14T07:16:41;6.75;;;5.82;;
8139;SDS011;4111;50.972;7.072;2022-08-14T07:19:07;6.60;;;6.00;;
8139;SDS011;4111;50.972;7.072;2022-08-14T07:21:36;6.65;;;6.15;;
8139;SDS011;4111;50.972;7.072;2022-08-14T07:24:03;6.35;;;5.75;;
8139;SDS011;4111;50.972;7.072;2022-08-14T07:26:29;6.55;;;5.90;;
8139;SDS011;4111;50.972;7.072;2022-08-14T07:28:56;6.72;;;5.60;;
8139;SDS011;4111;50.972;7.072;2022-08-14T07:31:22;6.32;;;5.68;;
8139;SDS011;4111;50.972;7.072;2022-08-14T07:33:49;5.45;;;5.03;;
8139;SDS011;4111;50.972;7.072;2022-08-14T07:36:17;6.97;;;6.15;;
8139;SDS011;4111;50.972;7.072;2022-08-14T07:38:55;7.32;;;6.03;;
8139;SDS011;4111;50.972;7.072;2022-08-14T07:41:23;8.57;;;5.50;;
8139;SDS011;4111;50.972;7.072;2022-08-14T07:43:49;7.50;;;5.80;;
8139;SDS011;4111;50.972;7.072;2022-08-14T07:46:22;7.75;;;5.57;;
8139;SDS011;4111;50.972;7.072;2022-08-14T07:48:54;5.50;;;5.10;;
8139;SDS011;4111;50.972;7.072;2022-08-14T07:51:22;6.13;;;5.63;;
8139;SDS011;4111;50.972;7.072;2022-08-14T07:53:49;6.07;;;5.18;;
8139;SDS011;4111;50.972;7.072;2022-08-14T07:56:22;5.82;;;5.35;;
8139;SDS011;4111;50.972;7.072;2022-08-14T07:59:09;6.78;;;4.88;;
8139;SDS011;4111;50.972;7.072;2022-08-14T08:01:38;5.60;;;5.20;;
8139;SDS011;4111;50.972;7.072;2022-08-14T08:04:18;6.30;;;5.47;;
8139;SDS011;4111;50.972;7.072;2022-08-14T08:06:50;5.72;;;4.72;;
8139;SDS011;4111;50.972;7.072;2022-08-14T08:09:19;8.00;;;5.55;;
8139;SDS011;4111;50.972;7.072;2022-08-14T08:11:57;6.03;;;5.53;;
8139;SDS011;4111;50.972;7.072;2022-08-14T08:14:31;5.63;;;5.22;;
8139;SDS011;4111;50.972;7.072;2022-08-14T08:17:20;5.32;;;4.93;;
8139;SDS011;4111;50.972;7.072;2022-08-14T08:19:49;5.32;;;4.93;;
8139;SDS011;4111;50.972;7.072;2022-08-14T08:22:16;5.07;;;4.60;;
8139;SDS011;4111;50.972;7.072;2022-08-14T08:24:46;4.75;;;4.35;;
8139;SDS011;4111;50.972;7.072;2022-08-14T08:27:16;5.32;;;4.47;;
8139;SDS011;4111;50.972;7.072;2022-08-14T08:29:46;4.80;;;4.43;;
8139;SDS011;4111;50.972;7.072;2022-08-14T08:32:16;6.03;;;4.68;;
8139;SDS011;4111;50.972;7.072;2022-08-14T08:34:44;4.82;;;4.43;;
8139;SDS011;4111;50.972;7.072;2022-08-14T08:37:12;5.00;;;4.60;;
8139;SDS011;4111;50.972;7.072;2022-08-14T08:39:42;5.30;;;4.63;;
8139;SDS011;4111;50.972;7.072;2022-08-14T08:42:28;5.00;;;4.60;;
8139;SDS011;4111;50.972;7.072;2022-08-14T08:45:04;5.18;;;4.78;;
8139;SDS011;4111;50.972;7.072;2022-08-14T08:47:38;5.03;;;4.45;;
8139;SDS011;4111;50.972;7.072;2022-08-14T08:50:14;4.65;;;4.35;;
8139;SDS011;4111;50.972;7.072;2022-08-14T08:52:49;4.90;;;4.00;;
8139;SDS011;4111;50.972;7.072;2022-08-14T08:55:24;5.07;;;4.53;;
8139;SDS011;4111;50.972;7.072;2022-08-14T08:57:55;4.40;;;4.10;;
8139;SDS011;4111;50.972;7.072;2022-08-14T09:00:27;4.90;;;4.30;;
8139;SDS011;4111;50.972;7.072;2022-08-14T09:02:58;4.40;;;4.10;;
8139;SDS011;4111;50.972;7.072;2022-08-14T09:05:38;5.05;;;4.55;;
8139;SDS011;4111;50.972;7.072;2022-08-14T09:08:20;4.90;;;4.22;;
8139;SDS011;4111;50.972;7.072;2022-08-14T09:11:03;4.32;;;3.92;;
8139;SDS011;4111;50.972;7.072;2022-08-14T09:13:47;3.80;;;3.60;;
8139;SDS011;4111;50.972;7.072;2022-08-14T09:16:17;4.00;;;3.67;;
8139;SDS011;4111;50.972;7.072;2022-08-14T09:18:47;4.15;;;3.85;;
8139;SDS011;4111;50.972;7.072;2022-08-14T09:21:13;4.05;;;3.78;;
8139;SDS011;4111;50.972;7.072;2022-08-14T09:23:41;4.45;;;4.05;;
8139;SDS011;4111;50.972;7.072;2022-08-14T09:26:28;4.53;;;4.13;;
8139;SDS011;4111;50.972;7.072;2022-08-14T09:28:57;3.72;;;3.42;;
8139;SDS011;4111;50.972;7.072;2022-08-14T09:31:24;4.15;;;3.85;;
8139;SDS011;4111;50.972;7.072;2022-08-14T09:40:10;3.95;;;3.65;;
8139;SDS011;4111;50.972;7.072;2022-08-14T09:43:02;3.97;;;3.45;;
8139;SDS011;4111;50.972;7.072;2022-08-14T09:45:37;5.63;;;3.63;;
8139;SDS011;4111;50.972;7.072;2022-08-14T09:48:19;6.40;;;3.30;;
8139;SDS011;4111;50.972;7.072;2022-08-14T09:50:56;5.00;;;4.60;;
8139;SDS011;4111;50.972;7.072;2022-08-14T09:53:42;4.53;;;4.18;;
8139;SDS011;4111;50.972;7.072;2022-08-14T09:56:54;4.22;;;3.65;;
8139;SDS011;4111;50.972;7.072;2022-08-14T09:59:24;6.03;;;3.42;;
8139;SDS011;4111;50.972;7.072;2022-08-14T10:01:53;5.82;;;4.03;;
8139;SDS011;4111;50.972;7.072;2022-08-14T10:04:24;5.13;;;3.58;;
8139;SDS011;4111;50.972;7.072;2022-08-14T10:07:03;4.15;;;3.33;;
8139;SDS011;4111;50.972;7.072;2022-08-14T10:09:33;4.05;;;3.65;;
8139;SDS011;4111;50.972;7.072;2022-08-14T10:12:26;3.38;;;3.17;;
8139;SDS011;4111;50.972;7.072;2022-08-14T10:15:21;3.80;;;3.50;;
8139;SDS011;4111;50.972;7.072;2022-08-14T10:18:02;3.85;;;3.55;;
8139;SDS011;4111;50.972;7.072;2022-08-14T10:20:39;3.38;;;3.17;;
8139;SDS011;4111;50.972;7.072;2022-08-14T10:23:24;3.65;;;3.35;;
8139;SDS011;4111;50.972;7.072;2022-08-14T10:26:05;3.60;;;3.38;;
8139;SDS011;4111;50.972;7.072;2022-08-14T10:28:42;3.55;;;3.35;;
8139;SDS011;4111;50.972;7.072;2022-08-14T10:31:30;3.72;;;3.40;;
8139;SDS011;4111;50.972;7.072;2022-08-14T10:34:12;3.50;;;3.20;;
8139;SDS011;4111;50.972;7.072;2022-08-14T10:36:44;3.03;;;2.92;;
8139;SDS011;4111;50.972;7.072;2022-08-14T10:41:46;3.60;;;3.30;;
8139;SDS011;4111;50.972;7.072;2022-08-14T10:44:21;3.60;;;3.40;;
8139;SDS011;4111;50.972;7.072;2022-08-14T10:46:55;7.05;;;5.10;;
8139;SDS011;4111;50.972;7.072;2022-08-14T10:49:54;3.58;;;3.28;;
8139;SDS011;4111;50.972;7.072;2022-08-14T10:52:25;3.53;;;3.22;;
8139;SDS011;4111;50.972;7.072;2022-08-14T10:55:13;3.30;;;3.10;;
8139;SDS011;4111;50.972;7.072;2022-08-14T10:57:48;4.13;;;3.85;;
8139;SDS011;4111;50.972;7.072;2022-08-14T11:00:19;3.70;;;3.50;;
8139;SDS011;4111;50.972;7.072;2022-08-14T11:03:01;3.35;;;3.15;;
8139;SDS011;4111;50.972;7.072;2022-08-14T11:05:40;3.35;;;3.15;;
8139;SDS011;4111;50.972;7.072;2022-08-14T11:08:11;3.88;;;2.97;;
8139;SDS011;4111;50.972;7.072;2022-08-14T11:13:15;3.30;;;3.10;;
8139;SDS011;4111;50.972;7.072;2022-08-14T11:15:49;3.50;;;3.30;;
8139;SDS011;4111;50.972;7.072;2022-08-14T11:18:18;3.30;;;3.10;;
8139;SDS011;4111;50.972;7.072;2022-08-14T11:20:58;3.10;;;2.90;;
8139;SDS011;4111;50.972;7.072;2022-08-14T11:23:28;2.97;;;2.78;;
8139;SDS011;4111;50.972;7.072;2022-08-14T11:26:04;3.40;;;3.20;;
8139;SDS011;4111;50.972;7.072;2022-08-14T11:28:41;4.93;;;3.25;;
8139;SDS011;4111;50.972;7.072;2022-08-14T11:31:17;3.10;;;2.63;;
8139;SDS011;4111;50.972;7.072;2022-08-14T11:33:48;3.88;;;2.65;;
8139;SDS011;4111;50.972;7.072;2022-08-14T11:36:16;2.78;;;2.67;;
8139;SDS011;4111;50.972;7.072;2022-08-14T11:38:48;4.53;;;3.00;;
8139;SDS011;4111;50.972;7.072;2022-08-14T11:41:16;4.53;;;2.67;;
8139;SDS011;4111;50.972;7.072;2022-08-14T11:43:43;2.50;;;2.40;;
8139;SDS011;4111;50.972;7.072;2022-08-14T11:46:24;4.28;;;2.80;;
8139;SDS011;4111;50.972;7.072;2022-08-14T11:49:03;2.70;;;2.60;;
8139;SDS011;4111;50.972;7.072;2022-08-14T11:51:31;2.70;;;2.50;;
8139;SDS011;4111;50.972;7.072;2022-08-14T11:54:19;2.83;;;2.72;;
8139;SDS011;4111;50.972;7.072;2022-08-14T11:57:00;2.70;;;2.60;;
8139;SDS011;4111;50.972;7.072;2022-08-14T11:59:26;3.28;;;3.03;;
8139;SDS011;4111;50.972;7.072;2022-08-14T12:02:08;2.50;;;2.40;;
8139;SDS011;4111;50.972;7.072;2022-08-14T12:05:01;3.47;;;3.00;;
8139;SDS011;4111;50.972;7.072;2022-08-14T12:07:29;3.45;;;2.95;;
8139;SDS011;4111;50.972;7.072;2022-08-14T12:09:57;3.30;;;3.05;;
8139;SDS011;4111;50.972;7.072;2022-08-14T12:12:25;3.40;;;3.20;;
8139;SDS011;4111;50.972;7.072;2022-08-14T12:15:02;3.25;;;3.05;;
8139;SDS011;4111;50.972;7.072;2022-08-14T12:17:33;2.88;;;2.70;;
8139;SDS011;4111;50.972;7.072;2022-08-14T12:20:14;3.33;;;3.13;;
8139;SDS011;4111;50.972;7.072;2022-08-14T12:22:55;3.10;;;2.92;;
8139;SDS011;4111;50.972;7.072;2022-08-14T12:25:22;3.17;;;3.08;;
8139;SDS011;4111;50.972;7.072;2022-08-14T12:27:51;3.50;;;3.25;;
8139;SDS011;4111;50.972;7.072;2022-08-14T12:30:27;3.67;;;3.08;;
8139;SDS011;4111;50.972;7.072;2022-08-14T12:33:06;3.20;;;2.90;;
8139;SDS011;4111;50.972;7.072;2022-08-14T12:35:49;3.30;;;3.10;;
8139;SDS011;4111;50.972;7.072;2022-08-14T12:38:35;3.25;;;3.05;;
8139;SDS011;4111;50.972;7.072;2022-08-14T12:41:11;3.58;;;3.38;;
8139;SDS011;4111;50.972;7.072;2022-08-14T12:46:23;3.17;;;2.97;;
8139;SDS011;4111;50.972;7.072;2022-08-14T12:49:12;3.20;;;2.90;;
8139;SDS011;4111;50.972;7.072;2022-08-14T12:51:43;3.53;;;3.33;;
8139;SDS011;4111;50.972;7.072;2022-08-14T12:54:22;3.00;;;2.80;;
8139;SDS011;4111;50.972;7.072;2022-08-14T12:57:12;3.40;;;3.03;;
8139;SDS011;4111;50.972;7.072;2022-08-14T12:59:45;3.92;;;2.67;;
8139;SDS011;4111;50.972;7.072;2022-08-14T13:02:21;3.95;;;3.00;;
8139;SDS011;4111;50.972;7.072;2022-08-14T13:04:52;3.65;;;3.35;;
8139;SDS011;4111;50.972;7.072;2022-08-14T13:07:21;2.88;;;2.67;;
8139;SDS011;4111;50.972;7.072;2022-08-14T13:09:53;4.95;;;3.08;;
8139;SDS011;4111;50.972;7.072;2022-08-14T13:12:22;3.03;;;2.72;;
8139;SDS011;4111;50.972;7.072;2022-08-14T13:15:14;3.15;;;2.95;;
8139;SDS011;4111;50.972;7.072;2022-08-14T13:17:45;3.35;;;2.92;;
8139;SDS011;4111;50.972;7.072;2022-08-14T13:20:17;3.35;;;3.15;;
8139;SDS011;4111;50.972;7.072;2022-08-14T13:22:49;3.22;;;2.95;;
8139;SDS011;4111;50.972;7.072;2022-08-14T13:25:23;3.42;;;3.22;;
8139;SDS011;4111;50.972;7.072;2022-08-14T13:27:53;3.25;;;2.85;;
8139;SDS011;4111;50.972;7.072;2022-08-14T13:30:23;2.80;;;2.70;;
8139;SDS011;4111;50.972;7.072;2022-08-14T13:32:51;3.20;;;2.90;;
8139;SDS011;4111;50.972;7.072;2022-08-14T13:35:19;3.42;;;3.22;;
8139;SDS011;4111;50.972;7.072;2022-08-14T13:37:48;3.50;;;3.30;;
8139;SDS011;4111;50.972;7.072;2022-08-14T13:40:19;3.40;;;3.20;;
8139;SDS011;4111;50.972;7.072;2022-08-14T13:42:52;3.25;;;3.05;;
8139;SDS011;4111;50.972;7.072;2022-08-14T13:45:22;2.95;;;2.75;;
8139;SDS011;4111;50.972;7.072;2022-08-14T13:47:59;3.03;;;2.83;;
8139;SDS011;4111;50.972;7.072;2022-08-14T13:50:26;3.47;;;3.03;;
8139;SDS011;4111;50.972;7.072;2022-08-14T13:52:53;3.30;;;3.03;;
8139;SDS011;4111;50.972;7.072;2022-08-14T13:55:25;3.30;;;3.10;;
8139;SDS011;4111;50.972;7.072;2022-08-14T13:57:58;4.75;;;3.40;;
8139;SDS011;4111;50.972;7.072;2022-08-14T14:00:30;3.33;;;3.08;;
8139;SDS011;4111;50.972;7.072;2022-08-14T14:03:19;3.50;;;3.30;;
8139;SDS011;4111;50.972;7.072;2022-08-14T14:05:51;3.28;;;3.08;;
8139;SDS011;4111;50.972;7.072;2022-08-14T14:08:21;3.50;;;3.20;;
8139;SDS011;4111;50.972;7.072;2022-08-14T14:11:12;3.10;;;2.90;;
8139;SDS011;4111;50.972;7.072;2022-08-14T14:13:42;3.08;;;2.90;;
8139;SDS011;4111;50.972;7.072;2022-08-14T14:16:11;3.25;;;3.08;;
8139;SDS011;4111;50.972;7.072;2022-08-14T14:18:41;3.30;;;3.05;;
8139;SDS011;4111;50.972;7.072;2022-08-14T14:21:11;3.20;;;3.00;;
8139;SDS011;4111;50.972;7.072;2022-08-14T14:23:39;3.40;;;3.13;;
8139;SDS011;4111;50.972;7.072;2022-08-14T14:26:09;3.30;;;3.00;;
8139;SDS011;4111;50.972;7.072;2022-08-14T14:28:50;2.88;;;2.67;;
8139;SDS011;4111;50.972;7.072;2022-08-14T14:31:25;2.97;;;2.80;;
8139;SDS011;4111;50.972;7.072;2022-08-14T14:33:56;4.63;;;2.92;;
8139;SDS011;4111;50.972;7.072;2022-08-14T14:36:26;2.47;;;2.33;;
8139;SDS011;4111;50.972;7.072;2022-08-14T14:38:55;3.10;;;2.90;;
8139;SDS011;4111;50.972;7.072;2022-08-14T14:41:25;2.70;;;2.50;;
8139;SDS011;4111;50.972;7.072;2022-08-14T14:44:04;4.43;;;2.60;;
8139;SDS011;4111;50.972;7.072;2022-08-14T14:46:35;3.03;;;2.50;;
8139;SDS011;4111;50.972;7.072;2022-08-14T14:49:07;4.03;;;2.63;;
8139;SDS011;4111;50.972;7.072;2022-08-14T14:51:39;2.75;;;2.55;;
8139;SDS011;4111;50.972;7.072;2022-08-14T14:54:12;2.53;;;2.42;;
8139;SDS011;4111;50.972;7.072;2022-08-14T14:56:43;2.85;;;2.60;;
8139;SDS011;4111;50.972;7.072;2022-08-14T14:59:17;2.95;;;2.47;;
8139;SDS011;4111;50.972;7.072;2022-08-14T15:01:46;2.50;;;2.40;;
8139;SDS011;4111;50.972;7.072;2022-08-14T15:04:15;2.85;;;2.67;;
8139;SDS011;4111;50.972;7.072;2022-08-14T15:06:46;3.22;;;2.50;;
8139;SDS011;4111;50.972;7.072;2022-08-14T15:09:13;2.67;;;2.40;;
8139;SDS011;4111;50.972;7.072;2022-08-14T15:11:43;2.47;;;2.38;;
8139;SDS011;4111;50.972;7.072;2022-08-14T15:14:12;2.38;;;2.28;;
8139;SDS011;4111;50.972;7.072;2022-08-14T15:16:59;2.60;;;2.40;;
8139;SDS011;4111;50.972;7.072;2022-08-14T15:19:27;2.50;;;2.30;;
8139;SDS011;4111;50.972;7.072;2022-08-14T15:21:53;2.90;;;2.78;;
8139;SDS011;4111;50.972;7.072;2022-08-14T15:24:20;2.38;;;2.28;;
8139;SDS011;4111;50.972;7.072;2022-08-14T15:26:52;2.90;;;2.70;;
8139;SDS011;4111;50.972;7.072;2022-08-14T15:29:19;2.10;;;2.00;;
8139;SDS011;4111;50.972;7.072;2022-08-14T15:31:45;2.20;;;2.10;;
8139;SDS011;4111;50.972;7.072;2022-08-14T15:34:12;2.60;;;2.50;;
8139;SDS011;4111;50.972;7.072;2022-08-14T15:37:00;2.55;;;2.45;;
8139;SDS011;4111;50.972;7.072;2022-08-14T15:39:30;2.38;;;2.28;;
8139;SDS011;4111;50.972;7.072;2022-08-14T15:42:04;2.22;;;2.10;;
8139;SDS011;4111;50.972;7.072;2022-08-14T15:44:41;2.33;;;2.22;;
8139;SDS011;4111;50.972;7.072;2022-08-14T15:47:25;2.53;;;2.30;;
8139;SDS011;4111;50.972;7.072;2022-08-14T15:49:54;2.30;;;2.20;;
8139;SDS011;4111;50.972;7.072;2022-08-14T15:52:26;2.30;;;2.20;;
8139;SDS011;4111;50.972;7.072;2022-08-14T15:55:00;2.33;;;2.22;;
8139;SDS011;4111;50.972;7.072;2022-08-14T15:57:38;2.40;;;2.30;;
8139;SDS011;4111;50.972;7.072;2022-08-14T16:00:25;2.58;;;2.47;;
8139;SDS011;4111;50.972;7.072;2022-08-14T16:03:15;2.47;;;2.38;;
8139;SDS011;4111;50.972;7.072;2022-08-14T16:06:04;2.92;;;2.30;;
8139;SDS011;4111;50.972;7.072;2022-08-14T16:08:41;2.47;;;2.38;;
8139;SDS011;4111;50.972;7.072;2022-08-14T16:11:08;2.38;;;2.10;;